Time;durP1;ratioP1;P1;durP2;ratioP2;P2;SDS_P1;SDS_P2;PMS_P1;PMS_P2;Temp;Humidity;BMP_temperature;BMP_pressure;BME280_temperature;BME280_humidity;BME280_pressure;Samples;Min_cycle;Max_cycle;Signal;HPM_P1;HPM_P2
2022/09/05 00:01:26;;;;;;;0.00;0.00;;;;;;;;;;5012759;28;20041;-79
2022/09/05 00:03:55;;;;;;;0.00;0.00;;;;;;;;;;5023004;28;20185;-78
2022/09/05 00:06:24;;;;;;;0.52;0.52;;;;;;;;;;5025519;28;20101;-79
2022/09/05 00:08:53;;;;;;;0.00;0.00;;;;;;;;;;5029236;28;20028;-79
2022/09/05 00:11:38;;;;;;;0.00;0.00;;;;;;;;;;5017557;28;20117;-79
2022/09/05 00:14:04;;;;;;;0.00;0.00;;;;;;;;;;5019453;28;20120;-78
2022/09/05 00:16:40;;;;;;;0.00;0.00;;;;;;;;;;5022461;28;20479;-78
2022/09/05 00:19:14;;;;;;;0.00;0.00;;;;;;;;;;5019258;28;20034;-79
2022/09/05 00:21:40;;;;;;;0.00;0.00;;;;;;;;;;5017211;28;20033;-78
2022/09/05 00:24:06;;;;;;;0.10;0.10;;;;;;;;;;5021628;28;20025;-79
2022/09/05 00:26:58;;;;;;;0.00;0.00;;;;;;;;;;5023613;28;20395;-79
2022/09/05 00:29:36;;;;;;;0.00;0.00;;;;;;;;;;5021405;28;20104;-78
2022/09/05 00:32:15;;;;;;;0.00;0.00;;;;;;;;;;5045022;27;20120;-79
2022/09/05 00:34:57;;;;;;;0.00;0.00;;;;;;;;;;5055287;28;20051;-79
2022/09/05 00:37:30;;;;;;;0.00;0.00;;;;;;;;;;5020157;28;20017;-79
2022/09/05 00:40:11;;;;;;;0.00;0.00;;;;;;;;;;5052709;27;20082;-79
2022/09/05 00:42:38;;;;;;;0.00;0.00;;;;;;;;;;5016042;28;20120;-79
2022/09/05 00:45:05;;;;;;;0.00;0.00;;;;;;;;;;5016886;28;20032;-79
2022/09/05 00:47:32;;;;;;;0.00;0.00;;;;;;;;;;4998970;28;20028;-79
2022/09/05 00:50:06;;;;;;;0.00;0.00;;;;;;;;;;5012729;28;20029;-79
2022/09/05 00:52:36;;;;;;;0.00;0.00;;;;;;;;;;5023953;28;20061;-81
2022/09/05 00:55:24;;;;;;;0.00;0.00;;;;;;;;;;5022055;28;20105;-79
2022/09/05 00:57:51;;;;;;;0.00;0.00;;;;;;;;;;5021592;28;20037;-79
2022/09/05 01:00:20;;;;;;;0.00;0.00;;;;;;;;;;5024311;28;20035;-79
2022/09/05 01:03:11;;;;;;;0.00;0.00;;;;;;;;;;5021930;28;20049;-79
2022/09/05 01:05:45;;;;;;;0.00;0.00;;;;;;;;;;5019756;28;20021;-78
2022/09/05 01:08:29;;;;;;;0.00;0.00;;;;;;;;;;5020024;28;20034;-78
2022/09/05 01:11:14;;;;;;;0.00;0.00;;;;;;;;;;5020869;28;20061;-79
2022/09/05 01:13:45;;;;;;;0.00;0.00;;;;;;;;;;5018780;28;20038;-78
2022/09/05 01:16:14;;;;;;;0.00;0.00;;;;;;;;;;5020422;28;20025;-80
2022/09/05 01:18:47;;;;;;;0.00;0.00;;;;;;;;;;5021375;28;20034;-80
2022/09/05 01:21:19;;;;;;;0.00;0.00;;;;;;;;;;5022698;28;20021;-78
2022/09/05 01:23:51;;;;;;;0.00;0.00;;;;;;;;;;5014455;28;20041;-79
2022/09/05 01:26:47;;;;;;;0.00;0.00;;;;;;;;;;5018134;28;20418;-80
2022/09/05 01:29:22;;;;;;;0.00;0.00;;;;;;;;;;5020271;28;20048;-79
2022/09/05 01:32:14;;;;;;;0.00;0.00;;;;;;;;;;5018919;28;20029;-79
2022/09/05 01:34:43;;;;;;;0.00;0.00;;;;;;;;;;5011132;28;20357;-79
2022/09/05 01:37:28;;;;;;;0.40;0.40;;;;;;;;;;5010990;28;20022;-79
2022/09/05 01:40:06;;;;;;;0.00;0.00;;;;;;;;;;5015185;28;20375;-80
2022/09/05 01:42:51;;;;;;;0.00;0.00;;;;;;;;;;5030492;28;20499;-79
2022/09/05 01:45:26;;;;;;;0.00;0.00;;;;;;;;;;5043865;28;20071;-79
2022/09/05 01:47:52;;;;;;;0.00;0.00;;;;;;;;;;5030284;28;20032;-78
2022/09/05 01:50:39;;;;;;;1.60;0.80;;;;;;;;;;5021559;28;20298;-80
2022/09/05 01:53:26;;;;;;;0.00;0.00;;;;;;;;;;5016355;28;20121;-80
2022/09/05 01:56:11;;;;;;;0.00;0.00;;;;;;;;;;5014241;28;20345;-79
2022/09/05 01:58:56;;;;;;;0.00;0.00;;;;;;;;;;5014227;28;20026;-78
2022/09/05 02:01:25;;;;;;;0.10;0.10;;;;;;;;;;5021174;28;20501;-79
2022/09/05 02:04:10;;;;;;;0.00;0.00;;;;;;;;;;5014737;28;20073;-79
2022/09/05 02:06:48;;;;;;;0.13;0.13;;;;;;;;;;5015971;28;20030;-79
2022/09/05 02:09:20;;;;;;;6.22;5.90;;;;;;;;;;5012060;28;20126;-81
2022/09/05 02:11:53;;;;;;;0.00;0.00;;;;;;;;;;5018581;28;20052;-79
2022/09/05 02:14:29;;;;;;;0.00;0.00;;;;;;;;;;5013548;28;20121;-79
2022/09/05 02:17:06;;;;;;;0.00;0.00;;;;;;;;;;5015746;28;20104;-79
2022/09/05 02:19:40;;;;;;;0.22;0.22;;;;;;;;;;5020834;28;20018;-81
2022/09/05 02:22:09;;;;;;;0.00;0.00;;;;;;;;;;5013952;28;20451;-79
2022/09/05 02:24:47;;;;;;;0.00;0.00;;;;;;;;;;5017789;28;20044;-79
2022/09/05 02:27:25;;;;;;;1.95;1.85;;;;;;;;;;5019757;28;20033;-80
2022/09/05 02:30:05;;;;;;;0.30;0.30;;;;;;;;;;5011383;28;20028;-80
2022/09/05 02:32:37;;;;;;;0.00;0.00;;;;;;;;;;5017040;28;20026;-80
2022/09/05 02:35:06;;;;;;;0.00;0.00;;;;;;;;;;5020499;28;20027;-80
2022/09/05 02:37:38;;;;;;;0.00;0.00;;;;;;;;;;5013338;28;20113;-79
2022/09/05 02:40:10;;;;;;;0.08;0.08;;;;;;;;;;5014697;28;20100;-78
2022/09/05 02:42:42;;;;;;;0.70;0.70;;;;;;;;;;5021477;28;20025;-79
2022/09/05 02:45:17;;;;;;;0.00;0.00;;;;;;;;;;5016146;28;20101;-79
2022/09/05 02:48:04;;;;;;;5.95;3.35;;;;;;;;;;5017280;28;20033;-79
2022/09/05 02:50:48;;;;;;;0.00;0.00;;;;;;;;;;5020443;28;20444;-79
2022/09/05 02:53:17;;;;;;;1.08;1.08;;;;;;;;;;5046020;28;20096;-79
2022/09/05 02:55:49;;;;;;;0.00;0.00;;;;;;;;;;5047145;27;20473;-79
2022/09/05 02:58:25;;;;;;;0.10;0.10;;;;;;;;;;5029283;27;20132;-79
2022/09/05 03:01:14;;;;;;;0.00;0.00;;;;;;;;;;5014648;28;20158;-79
2022/09/05 03:03:48;;;;;;;0.00;0.00;;;;;;;;;;5010672;27;20162;-80
2022/09/05 03:06:18;;;;;;;0.00;0.00;;;;;;;;;;5016338;28;20034;-81
2022/09/05 03:08:47;;;;;;;0.45;0.45;;;;;;;;;;5013439;28;20526;-80
2022/09/05 03:11:18;;;;;;;0.00;0.00;;;;;;;;;;5021257;27;20110;-81
2022/09/05 03:13:47;;;;;;;0.00;0.00;;;;;;;;;;5026535;27;20046;-81
2022/09/05 03:16:13;;;;;;;0.98;0.35;;;;;;;;;;5026615;27;20037;-80
2022/09/05 03:18:58;;;;;;;0.00;0.00;;;;;;;;;;5026956;27;20458;-80
2022/09/05 03:21:36;;;;;;;0.00;0.00;;;;;;;;;;5029477;27;20038;-80
2022/09/05 03:24:21;;;;;;;0.20;0.20;;;;;;;;;;5029393;27;20034;-80
2022/09/05 03:27:06;;;;;;;0.00;0.00;;;;;;;;;;5018449;27;20030;-79
2022/09/05 03:29:45;;;;;;;0.25;0.25;;;;;;;;;;5015364;27;20079;-80
2022/09/05 03:32:23;;;;;;;0.00;0.00;;;;;;;;;;5019304;27;20059;-80
2022/09/05 03:35:08;;;;;;;0.32;0.32;;;;;;;;;;5011878;28;20063;-79
2022/09/05 03:37:41;;;;;;;0.00;0.00;;;;;;;;;;5011777;28;20097;-80
2022/09/05 03:40:10;;;;;;;4.40;2.58;;;;;;;;;;5030428;27;20361;-79
2022/09/05 03:42:47;;;;;;;0.00;0.00;;;;;;;;;;5035151;27;20111;-78
2022/09/05 03:45:32;;;;;;;0.00;0.00;;;;;;;;;;5012939;28;20032;-77
2022/09/05 03:47:58;;;;;;;0.00;0.00;;;;;;;;;;5014681;28;20440;-80
2022/09/05 03:50:25;;;;;;;0.10;0.10;;;;;;;;;;5018268;27;20025;-78
2022/09/05 03:53:00;;;;;;;0.65;0.65;;;;;;;;;;5016224;28;20026;-77
2022/09/05 03:55:32;;;;;;;0.00;0.00;;;;;;;;;;5016081;27;20120;-77
2022/09/05 03:58:09;;;;;;;0.20;0.20;;;;;;;;;;5004428;28;20029;-77
2022/09/05 04:00:36;;;;;;;0.00;0.00;;;;;;;;;;5023007;27;20073;-78
2022/09/05 04:03:03;;;;;;;4.43;4.13;;;;;;;;;;5041800;27;20018;-79
2022/09/05 04:05:29;;;;;;;5.90;5.68;;;;;;;;;;5024864;27;20028;-78
2022/09/05 04:08:01;;;;;;;0.77;0.73;;;;;;;;;;5013856;28;20018;-78
2022/09/05 04:10:46;;;;;;;0.00;0.00;;;;;;;;;;5024235;27;20038;-78
2022/09/05 04:13:27;;;;;;;0.20;0.20;;;;;;;;;;5016112;28;20041;-79
2022/09/05 04:16:03;;;;;;;1.10;1.10;;;;;;;;;;5015791;28;20060;-78
2022/09/05 04:18:36;;;;;;;0.85;0.30;;;;;;;;;;5017158;28;20021;-77
2022/09/05 04:21:25;;;;;;;0.43;0.30;;;;;;;;;;5014978;28;20033;-79
2022/09/05 04:23:59;;;;;;;3.45;2.45;;;;;;;;;;5008639;27;20046;-78
2022/09/05 04:26:34;;;;;;;0.20;0.20;;;;;;;;;;5026738;27;20025;-78
2022/09/05 04:29:25;;;;;;;3.25;3.13;;;;;;;;;;5017158;28;20738;-79
2022/09/05 04:32:01;;;;;;;0.00;0.00;;;;;;;;;;5025056;28;20117;-78
2022/09/05 04:34:37;;;;;;;0.00;0.00;;;;;;;;;;5013563;27;20036;-80
2022/09/05 04:37:05;;;;;;;0.00;0.00;;;;;;;;;;5019405;27;20049;-78
2022/09/05 04:39:32;;;;;;;0.52;0.38;;;;;;;;;;5023616;27;20057;-78
2022/09/05 04:41:58;;;;;;;0.00;0.00;;;;;;;;;;5025551;27;20041;-79
2022/09/05 04:44:44;;;;;;;0.00;0.00;;;;;;;;;;5025492;27;20037;-78
2022/09/05 04:47:23;;;;;;;0.00;0.00;;;;;;;;;;5021545;28;20152;-78
2022/09/05 04:49:57;;;;;;;0.00;0.00;;;;;;;;;;5017571;28;20022;-78
2022/09/05 04:52:23;;;;;;;0.00;0.00;;;;;;;;;;5012096;28;20479;-79
2022/09/05 04:54:56;;;;;;;0.00;0.00;;;;;;;;;;5027780;27;20030;-78
2022/09/05 04:57:29;;;;;;;0.00;0.00;;;;;;;;;;5018291;28;20058;-77
2022/09/05 05:00:07;;;;;;;0.00;0.00;;;;;;;;;;5017005;27;20468;-77
2022/09/05 05:02:37;;;;;;;0.45;0.45;;;;;;;;;;5013663;27;20039;-80
2022/09/05 05:05:29;;;;;;;0.32;0.30;;;;;;;;;;5018557;27;20493;-79
2022/09/05 05:07:58;;;;;;;0.00;0.00;;;;;;;;;;5013494;27;20279;-79
2022/09/05 05:10:24;;;;;;;1.27;1.10;;;;;;;;;;5050240;27;20036;-79
2022/09/05 05:12:59;;;;;;;0.00;0.00;;;;;;;;;;5027462;27;20149;-79
2022/09/05 05:15:27;;;;;;;0.00;0.00;;;;;;;;;;5025321;27;20135;-79
2022/09/05 05:17:59;;;;;;;0.20;0.20;;;;;;;;;;5013696;28;20346;-79
2022/09/05 05:20:25;;;;;;;0.00;0.00;;;;;;;;;;5013175;28;20112;-80
2022/09/05 05:23:06;;;;;;;0.08;0.08;;;;;;;;;;5030796;27;20372;-80
2022/09/05 05:25:40;;;;;;;3.63;0.52;;;;;;;;;;5038906;27;20057;-80
2022/09/05 05:28:36;;;;;;;0.47;0.47;;;;;;;;;;5014942;27;20749;-80
2022/09/05 05:31:29;;;;;;;0.17;0.17;;;;;;;;;;5000492;28;20043;-80
2022/09/05 05:33:57;;;;;;;0.00;0.00;;;;;;;;;;5013097;27;20041;-80
2022/09/05 05:36:28;;;;;;;0.13;0.13;;;;;;;;;;5027188;28;20032;-80
2022/09/05 05:38:57;;;;;;;0.73;0.40;;;;;;;;;;5034228;27;20130;-78
2022/09/05 05:41:36;;;;;;;0.93;0.93;;;;;;;;;;5029851;28;20037;-79
2022/09/05 05:44:14;;;;;;;0.00;0.00;;;;;;;;;;5023441;28;20030;-78
2022/09/05 05:46:42;;;;;;;0.00;0.00;;;;;;;;;;5026851;28;20618;-78
2022/09/05 05:49:31;;;;;;;0.80;0.45;;;;;;;;;;5056110;28;20025;-81
2022/09/05 05:52:17;;;;;;;0.00;0.00;;;;;;;;;;4990958;28;20055;-79
2022/09/05 05:54:59;;;;;;;0.43;0.43;;;;;;;;;;5022474;28;20085;-79
2022/09/05 05:57:33;;;;;;;0.98;0.95;;;;;;;;;;5017943;28;20170;-78
2022/09/05 06:00:21;;;;;;;0.45;0.22;;;;;;;;;;5013969;28;20030;-78
2022/09/05 06:03:04;;;;;;;1.25;0.45;;;;;;;;;;5015748;28;20383;-79
2022/09/05 06:05:49;;;;;;;0.00;0.00;;;;;;;;;;5020445;28;20120;-78
2022/09/05 06:08:19;;;;;;;2.72;0.63;;;;;;;;;;5013852;28;20021;-80
2022/09/05 06:10:57;;;;;;;0.10;0.00;;;;;;;;;;5018698;28;20026;-79
2022/09/05 06:13:23;;;;;;;0.25;0.25;;;;;;;;;;5011951;28;20145;-79
2022/09/05 06:16:19;;;;;;;0.52;0.52;;;;;;;;;;5012875;28;20063;-79
2022/09/05 06:19:03;;;;;;;23.38;3.95;;;;;;;;;;5035583;28;20029;-78
2022/09/05 06:21:30;;;;;;;0.95;0.40;;;;;;;;;;5028758;28;20025;-80
2022/09/05 06:24:12;;;;;;;0.00;0.00;;;;;;;;;;5025972;28;20038;-79
2022/09/05 06:26:48;;;;;;;0.40;0.40;;;;;;;;;;5012681;28;20030;-81
2022/09/05 06:29:29;;;;;;;0.00;0.00;;;;;;;;;;5025048;28;20158;-79
2022/09/05 06:31:56;;;;;;;0.00;0.00;;;;;;;;;;5017830;27;20113;-78
2022/09/05 06:34:41;;;;;;;0.20;0.20;;;;;;;;;;5021194;27;20052;-78
2022/09/05 06:37:16;;;;;;;0.00;0.00;;;;;;;;;;5017039;27;20030;-78
2022/09/05 06:39:58;;;;;;;0.20;0.10;;;;;;;;;;5019893;28;20014;-78
2022/09/05 06:42:34;;;;;;;0.95;0.63;;;;;;;;;;5016362;28;20029;-78
2022/09/05 06:45:17;;;;;;;0.00;0.00;;;;;;;;;;5019194;27;20034;-78
2022/09/05 06:47:46;;;;;;;0.00;0.00;;;;;;;;;;5009990;28;20417;-79
2022/09/05 06:50:23;;;;;;;0.00;0.00;;;;;;;;;;5019008;28;20026;-79
2022/09/05 06:52:49;;;;;;;0.30;0.30;;;;;;;;;;5016531;27;20065;-79
2022/09/05 06:55:33;;;;;;;0.00;0.00;;;;;;;;;;5020606;28;20066;-79
2022/09/05 06:58:18;;;;;;;0.85;0.85;;;;;;;;;;5021834;28;20030;-79
2022/09/05 07:00:44;;;;;;;0.00;0.00;;;;;;;;;;5020306;28;20025;-79
2022/09/05 07:03:29;;;;;;;0.73;0.73;;;;;;;;;;5020417;28;20036;-79
2022/09/05 07:06:21;;;;;;;1.25;0.73;;;;;;;;;;5024683;27;20026;-80
2022/09/05 07:09:23;;;;;;;0.00;0.00;;;;;;;;;;5025903;28;20030;-77
2022/09/05 07:12:08;;;;;;;0.00;0.00;;;;;;;;;;4966039;28;20035;-78
2022/09/05 07:14:39;;;;;;;0.00;0.00;;;;;;;;;;5015627;28;20516;-79
2022/09/05 07:17:05;;;;;;;0.00;0.00;;;;;;;;;;5019796;27;20021;-79
2022/09/05 07:19:37;;;;;;;0.00;0.00;;;;;;;;;;5016063;28;20026;-79
2022/09/05 07:22:13;;;;;;;0.00;0.00;;;;;;;;;;5012206;28;20634;-78
2022/09/05 07:24:42;;;;;;;0.15;0.15;;;;;;;;;;5014231;28;20040;-77
2022/09/05 07:27:10;;;;;;;0.80;0.80;;;;;;;;;;5021947;27;20506;-79
2022/09/05 07:29:40;;;;;;;0.70;0.70;;;;;;;;;;5017191;28;20036;-78
2022/09/05 07:32:08;;;;;;;0.35;0.35;;;;;;;;;;5019965;27;20109;-78
2022/09/05 07:34:35;;;;;;;0.85;0.57;;;;;;;;;;5031653;27;20025;-80
2022/09/05 07:37:12;;;;;;;0.17;0.17;;;;;;;;;;5042984;27;20113;-78
2022/09/05 07:39:46;;;;;;;0.70;0.70;;;;;;;;;;5025238;27;20466;-78
2022/09/05 07:42:15;;;;;;;7.68;3.08;;;;;;;;;;5020855;27;20463;-78
2022/09/05 07:44:47;;;;;;;0.00;0.00;;;;;;;;;;5035268;27;20434;-78
2022/09/05 07:47:22;;;;;;;0.10;0.10;;;;;;;;;;5016928;27;20030;-77
2022/09/05 07:49:49;;;;;;;0.00;0.00;;;;;;;;;;5016191;27;20032;-78
2022/09/05 07:52:20;;;;;;;0.10;0.10;;;;;;;;;;5014945;27;20101;-79
2022/09/05 07:54:50;;;;;;;0.10;0.10;;;;;;;;;;5028497;27;20058;-79
2022/09/05 07:57:36;;;;;;;0.10;0.10;;;;;;;;;;5029174;27;20037;-79
2022/09/05 08:00:10;;;;;;;0.00;0.00;;;;;;;;;;5037327;27;20133;-78
2022/09/05 08:02:42;;;;;;;0.10;0.00;;;;;;;;;;5025711;27;20410;-79
2022/09/05 08:05:09;;;;;;;0.00;0.00;;;;;;;;;;5023282;27;20102;-79
2022/09/05 08:07:37;;;;;;;0.00;0.00;;;;;;;;;;5032116;27;21967;-79
2022/09/05 08:10:16;;;;;;;0.00;0.00;;;;;;;;;;5025784;27;20030;-79
2022/09/05 08:12:53;;;;;;;0.45;0.43;;;;;;;;;;5043152;27;20048;-79
2022/09/05 08:15:24;;;;;;;0.08;0.08;;;;;;;;;;5043201;27;20027;-78
2022/09/05 08:17:59;;;;;;;0.40;0.35;;;;;;;;;;5018350;27;20494;-79
2022/09/05 08:20:38;;;;;;;0.00;0.00;;;;;;;;;;5037958;27;20032;-80
2022/09/05 08:23:11;;;;;;;0.45;0.40;;;;;;;;;;5030692;27;20034;-80
2022/09/05 08:25:40;;;;;;;0.00;0.00;;;;;;;;;;5036537;27;20035;-79
2022/09/05 08:28:07;;;;;;;0.00;0.00;;;;;;;;;;5030845;27;20056;-80
2022/09/05 08:30:38;;;;;;;0.30;0.25;;;;;;;;;;5027807;27;20490;-78
2022/09/05 08:33:09;;;;;;;0.38;0.38;;;;;;;;;;5035512;27;20042;-79
2022/09/05 08:35:42;;;;;;;0.60;0.13;;;;;;;;;;5025790;27;20074;-78
2022/09/05 08:38:08;;;;;;;0.52;0.47;;;;;;;;;;5035009;27;20029;-78
2022/09/05 08:40:45;;;;;;;1.23;0.70;;;;;;;;;;5029416;27;20054;-78
2022/09/05 08:43:11;;;;;;;1.65;0.98;;;;;;;;;;5025844;27;20491;-79
2022/09/05 08:45:43;;;;;;;0.10;0.10;;;;;;;;;;5028111;27;20031;-79
2022/09/05 08:48:16;;;;;;;2.70;2.55;;;;;;;;;;5023313;27;21396;-79
2022/09/05 08:50:45;;;;;;;0.40;0.40;;;;;;;;;;5022952;27;20022;-79
2022/09/05 08:53:12;;;;;;;0.00;0.00;;;;;;;;;;5011788;28;20073;-80
2022/09/05 08:55:41;;;;;;;0.00;0.00;;;;;;;;;;5012918;27;20049;-79
2022/09/05 08:58:26;;;;;;;0.00;0.00;;;;;;;;;;5015174;28;20093;-80
2022/09/05 09:00:55;;;;;;;0.13;0.13;;;;;;;;;;5018502;27;20082;-80
2022/09/05 09:03:27;;;;;;;1.45;0.63;;;;;;;;;;5021375;27;20022;-79
2022/09/05 09:05:57;;;;;;;0.20;0.20;;;;;;;;;;5012496;27;20105;-80
2022/09/05 09:08:26;;;;;;;0.00;0.00;;;;;;;;;;5013825;28;20376;-79
2022/09/05 09:10:59;;;;;;;0.00;0.00;;;;;;;;;;5024362;27;20025;-79
2022/09/05 09:13:49;;;;;;;0.00;0.00;;;;;;;;;;5016365;27;20052;-79
2022/09/05 09:16:38;;;;;;;0.00;0.00;;;;;;;;;;5023535;27;20029;-80
2022/09/05 09:19:07;;;;;;;0.20;0.20;;;;;;;;;;5030139;27;20547;-79
2022/09/05 09:21:38;;;;;;;0.77;0.20;;;;;;;;;;5018935;27;20053;-78
2022/09/05 09:24:18;;;;;;;0.00;0.00;;;;;;;;;;5024218;27;20221;-80
2022/09/05 09:26:53;;;;;;;0.00;0.00;;;;;;;;;;5020491;27;20017;-79
2022/09/05 09:29:19;;;;;;;0.10;0.10;;;;;;;;;;5015591;27;20040;-78
2022/09/05 09:31:46;;;;;;;0.10;0.10;;;;;;;;;;5014932;27;20025;-79
2022/09/05 09:34:25;;;;;;;0.32;0.32;;;;;;;;;;5014520;28;20061;-80
2022/09/05 09:37:11;;;;;;;0.00;0.00;;;;;;;;;;5010920;27;20030;-80
2022/09/05 09:39:40;;;;;;;0.32;0.15;;;;;;;;;;5007938;28;20406;-79
2022/09/05 09:42:32;;;;;;;0.00;0.00;;;;;;;;;;5010064;28;20110;-79
2022/09/05 09:45:02;;;;;;;0.00;0.00;;;;;;;;;;5021189;28;20042;-80
2022/09/05 09:47:40;;;;;;;0.00;0.00;;;;;;;;;;5024310;28;20121;-79
2022/09/05 09:50:30;;;;;;;3.38;3.17;;;;;;;;;;5012930;28;20038;-79
2022/09/05 09:52:56;;;;;;;0.00;0.00;;;;;;;;;;5022461;28;20049;-80
2022/09/05 09:55:39;;;;;;;0.00;0.00;;;;;;;;;;5018923;28;20065;-79
2022/09/05 09:58:16;;;;;;;0.00;0.00;;;;;;;;;;5020296;28;20048;-78
2022/09/05 10:00:50;;;;;;;0.00;0.00;;;;;;;;;;5011991;28;20029;-78
2022/09/05 10:03:18;;;;;;;0.00;0.00;;;;;;;;;;5026200;28;20360;-79
2022/09/05 10:05:53;;;;;;;0.00;0.00;;;;;;;;;;5026432;27;20528;-79
2022/09/05 10:08:35;;;;;;;0.00;0.00;;;;;;;;;;5013171;27;20125;-79
2022/09/05 10:11:13;;;;;;;0.00;0.00;;;;;;;;;;5015566;27;20038;-78
2022/09/05 10:13:58;;;;;;;0.38;0.32;;;;;;;;;;5018747;27;20154;-79
2022/09/05 10:16:36;;;;;;;0.10;0.10;;;;;;;;;;5013393;27;20117;-78
2022/09/05 10:19:12;;;;;;;6.88;6.57;;;;;;;;;;5021477;27;20505;-79
2022/09/05 10:21:50;;;;;;;0.95;0.52;;;;;;;;;;5018454;28;20025;-78
2022/09/05 10:24:35;;;;;;;0.08;0.08;;;;;;;;;;5018362;28;20032;-79
2022/09/05 10:27:18;;;;;;;0.00;0.00;;;;;;;;;;5020571;28;20101;-78
2022/09/05 10:30:05;;;;;;;0.00;0.00;;;;;;;;;;5022007;27;20441;-79
2022/09/05 10:32:34;;;;;;;0.00;0.00;;;;;;;;;;5019822;27;20034;-78
2022/09/05 10:35:23;;;;;;;0.00;0.00;;;;;;;;;;5015634;28;20126;-81
2022/09/05 10:37:58;;;;;;;0.00;0.00;;;;;;;;;;5012347;28;20471;-80
2022/09/05 10:40:27;;;;;;;0.00;0.00;;;;;;;;;;5023725;27;20519;-78
2022/09/05 10:43:07;;;;;;;3.97;3.63;;;;;;;;;;5020673;27;20017;-79
2022/09/05 10:45:47;;;;;;;0.00;0.00;;;;;;;;;;5017594;27;20038;-78
2022/09/05 10:48:21;;;;;;;0.82;0.60;;;;;;;;;;5025958;28;20490;-79
2022/09/05 10:50:51;;;;;;;7.03;1.88;;;;;;;;;;5018782;27;20502;-79
2022/09/05 10:53:34;;;;;;;0.10;0.10;;;;;;;;;;5015615;28;20045;-79
2022/09/05 10:56:08;;;;;;;0.00;0.00;;;;;;;;;;5021371;27;20025;-79
2022/09/05 10:58:44;;;;;;;0.00;0.00;;;;;;;;;;5019761;27;20472;-80
2022/09/05 11:01:33;;;;;;;0.00;0.00;;;;;;;;;;5014936;27;20380;-78
2022/09/05 11:04:03;;;;;;;0.00;0.00;;;;;;;;;;5020283;28;20029;-79
2022/09/05 11:06:41;;;;;;;0.20;0.15;;;;;;;;;;5022816;27;20064;-78
2022/09/05 11:09:17;;;;;;;0.10;0.10;;;;;;;;;;5016207;28;20191;-79
2022/09/05 11:11:46;;;;;;;0.00;0.00;;;;;;;;;;5013538;27;20171;-79
2022/09/05 11:14:34;;;;;;;1.05;1.00;;;;;;;;;;5008981;28;20492;-79
2022/09/05 11:17:16;;;;;;;0.00;0.00;;;;;;;;;;5036923;27;20032;-80
2022/09/05 11:19:49;;;;;;;0.00;0.00;;;;;;;;;;5037956;27;20036;-82
2022/09/05 11:22:17;;;;;;;0.05;0.05;;;;;;;;;;5029742;27;20018;-81
2022/09/05 11:24:49;;;;;;;2.00;0.85;;;;;;;;;;5027186;27;20018;-82
2022/09/05 11:27:18;;;;;;;0.13;0.13;;;;;;;;;;5040220;27;20030;-81
2022/09/05 11:29:49;;;;;;;0.00;0.00;;;;;;;;;;5028939;27;20038;-84
2022/09/05 11:32:25;;;;;;;0.15;0.08;;;;;;;;;;5041082;27;20029;-84
2022/09/05 11:35:10;;;;;;;0.63;0.63;;;;;;;;;;5061620;27;20435;-83
2022/09/05 11:37:36;;;;;;;0.47;0.47;;;;;;;;;;5040049;27;20048;-80
2022/09/05 11:40:03;;;;;;;0.00;0.00;;;;;;;;;;5036228;27;20444;-79
2022/09/05 11:42:32;;;;;;;0.00;0.00;;;;;;;;;;5056946;27;20078;-80
2022/09/05 11:45:10;;;;;;;0.00;0.00;;;;;;;;;;5048471;27;20028;-81
2022/09/05 11:47:43;;;;;;;0.00;0.00;;;;;;;;;;5040646;27;20038;-82
2022/09/05 11:50:42;;;;;;;2.08;1.98;;;;;;;;;;5024844;27;20030;-81
2022/09/05 11:53:26;;;;;;;0.00;0.00;;;;;;;;;;4993839;28;20096;-80
2022/09/05 11:55:53;;;;;;;0.00;0.00;;;;;;;;;;5016446;28;20033;-82
2022/09/05 11:58:31;;;;;;;0.00;0.00;;;;;;;;;;5024445;27;20331;-80
2022/09/05 12:01:10;;;;;;;0.00;0.00;;;;;;;;;;5035869;27;20041;-80
2022/09/05 12:03:55;;;;;;;0.00;0.00;;;;;;;;;;5026497;27;20041;-82
2022/09/05 12:06:37;;;;;;;0.00;0.00;;;;;;;;;;5026648;27;20025;-81
2022/09/05 12:09:15;;;;;;;0.00;0.00;;;;;;;;;;5022744;27;20378;-81
2022/09/05 12:12:00;;;;;;;8.05;6.60;;;;;;;;;;5012065;28;20045;-81
2022/09/05 12:14:37;;;;;;;0.47;0.47;;;;;;;;;;5021145;27;20113;-82
2022/09/05 12:17:20;;;;;;;0.00;0.00;;;;;;;;;;5016254;27;20033;-80
2022/09/05 12:19:58;;;;;;;0.00;0.00;;;;;;;;;;5019133;27;20108;-79
2022/09/05 12:22:35;;;;;;;0.00;0.00;;;;;;;;;;5020733;27;20065;-81
2022/09/05 12:25:08;;;;;;;0.00;0.00;;;;;;;;;;5032013;27;20044;-81
2022/09/05 12:27:38;;;;;;;0.00;0.00;;;;;;;;;;5023725;27;20049;-81
2022/09/05 12:30:06;;;;;;;0.00;0.00;;;;;;;;;;5040995;27;20037;-82
2022/09/05 12:32:33;;;;;;;0.00;0.00;;;;;;;;;;5022056;27;20459;-82
2022/09/05 12:35:00;;;;;;;0.00;0.00;;;;;;;;;;5020538;27;20026;-80
2022/09/05 12:37:30;;;;;;;0.00;0.00;;;;;;;;;;5024496;27;20079;-79
2022/09/05 12:40:08;;;;;;;0.00;0.00;;;;;;;;;;5038234;27;20022;-80
2022/09/05 12:42:36;;;;;;;0.00;0.00;;;;;;;;;;5014385;28;20036;-80
2022/09/05 12:45:10;;;;;;;0.00;0.00;;;;;;;;;;5019193;28;20057;-79
2022/09/05 12:48:03;;;;;;;0.85;0.85;;;;;;;;;;5021371;28;20030;-80
2022/09/05 12:50:48;;;;;;;0.00;0.00;;;;;;;;;;5009436;28;20037;-80
2022/09/05 12:53:19;;;;;;;0.00;0.00;;;;;;;;;;5014353;28;20106;-80
2022/09/05 12:56:05;;;;;;;0.00;0.00;;;;;;;;;;5038268;27;20036;-80
2022/09/05 12:58:36;;;;;;;0.15;0.15;;;;;;;;;;5035509;27;20033;-80
2022/09/05 13:01:18;;;;;;;0.00;0.00;;;;;;;;;;5034390;27;20029;-79
2022/09/05 13:03:50;;;;;;;0.00;0.00;;;;;;;;;;5017495;28;20018;-78
2022/09/05 13:06:22;;;;;;;0.30;0.30;;;;;;;;;;5018415;28;20101;-78
2022/09/05 13:08:50;;;;;;;0.00;0.00;;;;;;;;;;5047863;27;20028;-78
2022/09/05 13:11:21;;;;;;;0.00;0.00;;;;;;;;;;5053080;27;20040;-79
2022/09/05 13:13:52;;;;;;;0.00;0.00;;;;;;;;;;5047770;27;20073;-79
2022/09/05 13:16:21;;;;;;;0.00;0.00;;;;;;;;;;5050494;27;20018;-79
2022/09/05 13:18:50;;;;;;;0.00;0.00;;;;;;;;;;5049707;27;20460;-79
2022/09/05 13:21:16;;;;;;;0.00;0.00;;;;;;;;;;5030163;27;20235;-79
2022/09/05 13:23:46;;;;;;;0.00;0.00;;;;;;;;;;5036838;27;20026;-79
2022/09/05 13:26:12;;;;;;;0.47;0.47;;;;;;;;;;5070163;27;20025;-79
2022/09/05 13:28:42;;;;;;;0.00;0.00;;;;;;;;;;5052865;27;20480;-79
2022/09/05 13:31:10;;;;;;;11.18;9.85;;;;;;;;;;5018885;28;20030;-79
2022/09/05 13:33:43;;;;;;;0.00;0.00;;;;;;;;;;5048259;27;20296;-79
2022/09/05 13:36:17;;;;;;;0.00;0.00;;;;;;;;;;5045210;27;20018;-79
2022/09/05 13:38:43;;;;;;;0.00;0.00;;;;;;;;;;5058695;27;20025;-79
2022/09/05 13:41:15;;;;;;;18.63;11.30;;;;;;;;;;5076910;27;20020;-78
2022/09/05 13:43:43;;;;;;;0.00;0.00;;;;;;;;;;5047244;27;20049;-79
2022/09/05 13:46:15;;;;;;;0.25;0.25;;;;;;;;;;5036110;28;20402;-78
2022/09/05 13:49:00;;;;;;;0.00;0.00;;;;;;;;;;5065615;28;20373;-79
2022/09/05 13:51:42;;;;;;;0.00;0.00;;;;;;;;;;5015745;28;20021;-78
2022/09/05 13:54:25;;;;;;;0.00;0.00;;;;;;;;;;5051272;28;20033;-79
2022/09/05 13:57:15;;;;;;;0.00;0.00;;;;;;;;;;5038618;28;20022;-79
2022/09/05 14:00:01;;;;;;;0.00;0.00;;;;;;;;;;5064150;28;20036;-79
2022/09/05 14:02:43;;;;;;;0.00;0.00;;;;;;;;;;5051028;28;20662;-79
2022/09/05 14:05:22;;;;;;;0.00;0.00;;;;;;;;;;5059668;28;20528;-79
2022/09/05 14:07:49;;;;;;;0.00;0.00;;;;;;;;;;5055038;28;20275;-79
2022/09/05 14:10:15;;;;;;;4.63;3.95;;;;;;;;;;5067499;28;20514;-79
2022/09/05 14:12:50;;;;;;;0.00;0.00;;;;;;;;;;5061849;28;20060;-79
2022/09/05 14:15:32;;;;;;;0.65;0.65;;;;;;;;;;5043209;28;20018;-79
2022/09/05 14:18:17;;;;;;;0.00;0.00;;;;;;;;;;5037703;28;20090;-79
2022/09/05 14:23:44;;;;;;;0.15;0.15;;;;;;;;;;5061285;28;20059;-79
2022/09/05 14:26:30;;;;;;;0.00;0.00;;;;;;;;;;5037975;28;20108;-78
2022/09/05 14:29:01;;;;;;;1.58;1.48;;;;;;;;;;5016401;28;20055;-78
2022/09/05 14:31:33;;;;;;;0.00;0.00;;;;;;;;;;5012487;28;20038;-78
2022/09/05 14:34:09;;;;;;;0.05;0.05;;;;;;;;;;5037281;28;20033;-79
2022/09/05 14:36:38;;;;;;;0.00;0.00;;;;;;;;;;5031736;28;20029;-79
2022/09/05 14:39:23;;;;;;;0.00;0.00;;;;;;;;;;5044985;28;20102;-79
2022/09/05 14:41:58;;;;;;;0.43;0.43;;;;;;;;;;5035800;28;20053;-79
2022/09/05 14:44:33;;;;;;;0.00;0.00;;;;;;;;;;5045677;28;20472;-79
2022/09/05 14:47:05;;;;;;;0.00;0.00;;;;;;;;;;5052646;28;20035;-78
2022/09/05 14:49:35;;;;;;;0.00;0.00;;;;;;;;;;5050746;28;20485;-80
2022/09/05 14:52:17;;;;;;;0.00;0.00;;;;;;;;;;5059245;27;20034;-81
2022/09/05 14:54:44;;;;;;;1.65;1.55;;;;;;;;;;5072905;27;20011;-81
2022/09/05 14:57:16;;;;;;;0.00;0.00;;;;;;;;;;5055192;27;20232;-79
2022/09/05 14:59:43;;;;;;;1.00;1.00;;;;;;;;;;5057087;27;20019;-80
2022/09/05 15:02:20;;;;;;;0.00;0.00;;;;;;;;;;5074359;27;20062;-80
2022/09/05 15:04:53;;;;;;;0.00;0.00;;;;;;;;;;5047492;27;20025;-79
2022/09/05 15:07:20;;;;;;;0.38;0.38;;;;;;;;;;5047967;27;20060;-81
2022/09/05 15:10:05;;;;;;;0.00;0.00;;;;;;;;;;5046721;27;20332;-80
2022/09/05 15:12:32;;;;;;;0.00;0.00;;;;;;;;;;5057300;27;20118;-79
2022/09/05 15:15:12;;;;;;;0.00;0.00;;;;;;;;;;5068815;27;20088;-79
2022/09/05 15:17:40;;;;;;;0.22;0.22;;;;;;;;;;5036347;27;20038;-79
2022/09/05 15:20:07;;;;;;;0.00;0.00;;;;;;;;;;5078855;27;20018;-79
2022/09/05 15:22:40;;;;;;;0.00;0.00;;;;;;;;;;5086159;27;20071;-79
2022/09/05 15:25:15;;;;;;;0.00;0.00;;;;;;;;;;5063258;27;20030;-81
2022/09/05 15:27:42;;;;;;;0.00;0.00;;;;;;;;;;5058090;27;20026;-80
2022/09/05 15:30:15;;;;;;;0.00;0.00;;;;;;;;;;5039072;27;20122;-79
2022/09/05 15:32:42;;;;;;;0.10;0.10;;;;;;;;;;5074402;27;20044;-79
2022/09/05 15:35:13;;;;;;;0.00;0.00;;;;;;;;;;5062405;27;20034;-80